sensor_id;sensor_type;location;lat;lon;timestamp;P1;durP1;ratioP1;P2;durP2;ratioP2
30420;SDS011;17218;54.070;10.012;2023-06-22T00:00:38;3.45;;;3.15;;
30420;SDS011;17218;54.070;10.012;2023-06-22T00:03:07;4.40;;;4.07;;
30420;SDS011;17218;54.070;10.012;2023-06-22T00:05:34;4.10;;;3.30;;
30420;SDS011;17218;54.070;10.012;2023-06-22T00:08:01;4.28;;;3.10;;
30420;SDS011;17218;54.070;10.012;2023-06-22T00:10:29;4.32;;;3.92;;
30420;SDS011;17218;54.070;10.012;2023-06-22T00:12:57;3.53;;;3.22;;
30420;SDS011;17218;54.070;10.012;2023-06-22T00:15:23;4.05;;;3.30;;
30420;SDS011;17218;54.070;10.012;2023-06-22T00:17:50;4.03;;;3.30;;
30420;SDS011;17218;54.070;10.012;2023-06-22T00:20:17;4.13;;;3.40;;
30420;SDS011;17218;54.070;10.012;2023-06-22T00:22:44;5.32;;;3.70;;
30420;SDS011;17218;54.070;10.012;2023-06-22T00:25:11;3.55;;;3.25;;
30420;SDS011;17218;54.070;10.012;2023-06-22T00:27:37;4.70;;;3.35;;
30420;SDS011;17218;54.070;10.012;2023-06-22T00:30:06;4.53;;;3.45;;
30420;SDS011;17218;54.070;10.012;2023-06-22T00:32:33;5.78;;;3.80;;
30420;SDS011;17218;54.070;10.012;2023-06-22T00:35:00;4.50;;;3.75;;
30420;SDS011;17218;54.070;10.012;2023-06-22T00:37:26;3.88;;;3.50;;
30420;SDS011;17218;54.070;10.012;2023-06-22T00:39:55;3.65;;;3.33;;
30420;SDS011;17218;54.070;10.012;2023-06-22T00:42:21;3.83;;;3.47;;
30420;SDS011;17218;54.070;10.012;2023-06-22T00:44:48;3.70;;;3.40;;
30420;SDS011;17218;54.070;10.012;2023-06-22T00:47:17;3.65;;;3.30;;
30420;SDS011;17218;54.070;10.012;2023-06-22T00:49:44;4.72;;;3.42;;
30420;SDS011;17218;54.070;10.012;2023-06-22T00:52:11;4.07;;;3.40;;
30420;SDS011;17218;54.070;10.012;2023-06-22T00:54:45;3.92;;;3.40;;
30420;SDS011;17218;54.070;10.012;2023-06-22T00:57:14;4.78;;;3.33;;
30420;SDS011;17218;54.070;10.012;2023-06-22T00:59:41;3.45;;;3.15;;
30420;SDS011;17218;54.070;10.012;2023-06-22T01:02:08;4.30;;;3.42;;
30420;SDS011;17218;54.070;10.012;2023-06-22T01:04:37;4.28;;;3.55;;
30420;SDS011;17218;54.070;10.012;2023-06-22T01:07:10;3.90;;;3.53;;
30420;SDS011;17218;54.070;10.012;2023-06-22T01:09:48;5.18;;;3.90;;
30420;SDS011;17218;54.070;10.012;2023-06-22T01:12:19;3.90;;;3.50;;
30420;SDS011;17218;54.070;10.012;2023-06-22T01:14:47;3.67;;;3.28;;
30420;SDS011;17218;54.070;10.012;2023-06-22T01:17:20;4.05;;;3.65;;
30420;SDS011;17218;54.070;10.012;2023-06-22T01:19:50;4.32;;;3.60;;
30420;SDS011;17218;54.070;10.012;2023-06-22T01:22:21;4.38;;;3.53;;
30420;SDS011;17218;54.070;10.012;2023-06-22T01:24:52;4.18;;;3.33;;
30420;SDS011;17218;54.070;10.012;2023-06-22T01:27:30;3.70;;;3.40;;
30420;SDS011;17218;54.070;10.012;2023-06-22T01:30:08;3.90;;;3.45;;
30420;SDS011;17218;54.070;10.012;2023-06-22T01:32:37;3.45;;;3.15;;
30420;SDS011;17218;54.070;10.012;2023-06-22T01:35:06;6.43;;;3.90;;
30420;SDS011;17218;54.070;10.012;2023-06-22T01:37:34;3.83;;;3.38;;
30420;SDS011;17218;54.070;10.012;2023-06-22T01:40:04;4.35;;;3.90;;
30420;SDS011;17218;54.070;10.012;2023-06-22T01:42:33;4.45;;;3.40;;
30420;SDS011;17218;54.070;10.012;2023-06-22T01:45:00;5.25;;;3.63;;
30420;SDS011;17218;54.070;10.012;2023-06-22T01:47:30;3.67;;;3.30;;
30420;SDS011;17218;54.070;10.012;2023-06-22T01:49:57;5.18;;;3.72;;
30420;SDS011;17218;54.070;10.012;2023-06-22T01:52:24;4.38;;;3.40;;
30420;SDS011;17218;54.070;10.012;2023-06-22T01:54:50;3.40;;;3.10;;
30420;SDS011;17218;54.070;10.012;2023-06-22T01:57:17;3.55;;;3.25;;
30420;SDS011;17218;54.070;10.012;2023-06-22T01:59:46;3.72;;;3.42;;
30420;SDS011;17218;54.070;10.012;2023-06-22T02:02:19;4.55;;;3.30;;
30420;SDS011;17218;54.070;10.012;2023-06-22T02:04:55;3.33;;;3.03;;
30420;SDS011;17218;54.070;10.012;2023-06-22T02:07:24;3.95;;;3.10;;
30420;SDS011;17218;54.070;10.012;2023-06-22T02:09:58;3.75;;;3.20;;
30420;SDS011;17218;54.070;10.012;2023-06-22T02:12:26;4.50;;;3.47;;
30420;SDS011;17218;54.070;10.012;2023-06-22T02:14:55;3.65;;;3.33;;
30420;SDS011;17218;54.070;10.012;2023-06-22T02:17:23;9.55;;;4.20;;
30420;SDS011;17218;54.070;10.012;2023-06-22T02:19:50;3.58;;;3.28;;
30420;SDS011;17218;54.070;10.012;2023-06-22T02:22:18;3.78;;;3.38;;
30420;SDS011;17218;54.070;10.012;2023-06-22T02:24:45;4.03;;;3.53;;
30420;SDS011;17218;54.070;10.012;2023-06-22T02:27:11;3.58;;;3.28;;
30420;SDS011;17218;54.070;10.012;2023-06-22T02:29:38;3.42;;;3.13;;
30420;SDS011;17218;54.070;10.012;2023-06-22T02:32:04;4.38;;;3.83;;
30420;SDS011;17218;54.070;10.012;2023-06-22T02:34:31;5.57;;;3.63;;
30420;SDS011;17218;54.070;10.012;2023-06-22T02:36:58;4.28;;;3.70;;
30420;SDS011;17218;54.070;10.012;2023-06-22T02:39:27;4.47;;;4.05;;
30420;SDS011;17218;54.070;10.012;2023-06-22T02:41:54;4.93;;;4.53;;
30420;SDS011;17218;54.070;10.012;2023-06-22T02:44:21;5.50;;;3.95;;
30420;SDS011;17218;54.070;10.012;2023-06-22T02:46:47;4.43;;;3.80;;
30420;SDS011;17218;54.070;10.012;2023-06-22T02:49:14;5.03;;;4.18;;
30420;SDS011;17218;54.070;10.012;2023-06-22T02:51:42;5.45;;;4.43;;
30420;SDS011;17218;54.070;10.012;2023-06-22T02:54:11;4.57;;;4.18;;
30420;SDS011;17218;54.070;10.012;2023-06-22T02:56:39;5.80;;;4.60;;
30420;SDS011;17218;54.070;10.012;2023-06-22T02:59:08;7.93;;;4.93;;
30420;SDS011;17218;54.070;10.012;2023-06-22T03:01:36;5.97;;;4.63;;
30420;SDS011;17218;54.070;10.012;2023-06-22T03:04:05;6.53;;;5.45;;
30420;SDS011;17218;54.070;10.012;2023-06-22T03:06:32;5.93;;;5.28;;
30420;SDS011;17218;54.070;10.012;2023-06-22T03:08:59;5.63;;;5.13;;
30420;SDS011;17218;54.070;10.012;2023-06-22T03:11:28;6.28;;;5.15;;
30420;SDS011;17218;54.070;10.012;2023-06-22T03:13:57;7.28;;;6.00;;
30420;SDS011;17218;54.070;10.012;2023-06-22T03:16:23;5.97;;;5.10;;
30420;SDS011;17218;54.070;10.012;2023-06-22T03:18:50;5.90;;;5.28;;
30420;SDS011;17218;54.070;10.012;2023-06-22T03:21:18;5.70;;;5.10;;
30420;SDS011;17218;54.070;10.012;2023-06-22T03:23:45;5.63;;;5.13;;
30420;SDS011;17218;54.070;10.012;2023-06-22T03:26:12;6.35;;;5.00;;
30420;SDS011;17218;54.070;10.012;2023-06-22T03:28:39;5.07;;;4.60;;
30420;SDS011;17218;54.070;10.012;2023-06-22T03:31:07;5.70;;;5.03;;
30420;SDS011;17218;54.070;10.012;2023-06-22T03:33:40;5.30;;;4.80;;
30420;SDS011;17218;54.070;10.012;2023-06-22T03:36:07;7.40;;;5.07;;
30420;SDS011;17218;54.070;10.012;2023-06-22T03:38:34;7.05;;;5.53;;
30420;SDS011;17218;54.070;10.012;2023-06-22T03:41:01;6.25;;;5.75;;
30420;SDS011;17218;54.070;10.012;2023-06-22T03:43:27;6.53;;;5.85;;
30420;SDS011;17218;54.070;10.012;2023-06-22T03:45:54;6.15;;;5.55;;
30420;SDS011;17218;54.070;10.012;2023-06-22T03:48:22;6.47;;;5.88;;
30420;SDS011;17218;54.070;10.012;2023-06-22T03:50:49;7.30;;;5.90;;
30420;SDS011;17218;54.070;10.012;2023-06-22T03:53:16;5.95;;;5.38;;
30420;SDS011;17218;54.070;10.012;2023-06-22T03:55:47;7.50;;;6.70;;
30420;SDS011;17218;54.070;10.012;2023-06-22T03:58:15;7.70;;;6.90;;
30420;SDS011;17218;54.070;10.012;2023-06-22T04:00:41;9.32;;;7.50;;
30420;SDS011;17218;54.070;10.012;2023-06-22T04:03:08;8.27;;;6.85;;
30420;SDS011;17218;54.070;10.012;2023-06-22T04:05:39;7.20;;;6.32;;
30420;SDS011;17218;54.070;10.012;2023-06-22T04:08:06;6.72;;;6.03;;
30420;SDS011;17218;54.070;10.012;2023-06-22T04:10:33;7.20;;;6.55;;
30420;SDS011;17218;54.070;10.012;2023-06-22T04:13:00;10.82;;;7.95;;
30420;SDS011;17218;54.070;10.012;2023-06-22T04:15:27;9.77;;;8.07;;
30420;SDS011;17218;54.070;10.012;2023-06-22T04:17:54;8.85;;;8.05;;
30420;SDS011;17218;54.070;10.012;2023-06-22T04:20:22;9.23;;;8.23;;
30420;SDS011;17218;54.070;10.012;2023-06-22T04:22:52;8.98;;;7.90;;
30420;SDS011;17218;54.070;10.012;2023-06-22T04:25:19;9.40;;;8.40;;
30420;SDS011;17218;54.070;10.012;2023-06-22T04:27:46;8.45;;;7.60;;
30420;SDS011;17218;54.070;10.012;2023-06-22T04:30:15;9.43;;;8.07;;
30420;SDS011;17218;54.070;10.012;2023-06-22T04:32:44;8.75;;;7.80;;
30420;SDS011;17218;54.070;10.012;2023-06-22T04:35:22;8.20;;;7.45;;
30420;SDS011;17218;54.070;10.012;2023-06-22T04:37:49;9.55;;;8.50;;
30420;SDS011;17218;54.070;10.012;2023-06-22T04:40:21;10.27;;;8.77;;
30420;SDS011;17218;54.070;10.012;2023-06-22T04:42:48;11.82;;;9.57;;
30420;SDS011;17218;54.070;10.012;2023-06-22T04:45:19;10.13;;;9.18;;
30420;SDS011;17218;54.070;10.012;2023-06-22T04:47:46;10.05;;;8.98;;
30420;SDS011;17218;54.070;10.012;2023-06-22T04:50:13;13.15;;;11.00;;
30420;SDS011;17218;54.070;10.012;2023-06-22T04:52:40;11.52;;;10.32;;
30420;SDS011;17218;54.070;10.012;2023-06-22T04:55:07;12.75;;;9.98;;
30420;SDS011;17218;54.070;10.012;2023-06-22T04:57:36;15.18;;;10.82;;
30420;SDS011;17218;54.070;10.012;2023-06-22T05:00:05;11.10;;;9.93;;
30420;SDS011;17218;54.070;10.012;2023-06-22T05:02:42;11.13;;;9.88;;
30420;SDS011;17218;54.070;10.012;2023-06-22T05:05:09;11.18;;;9.93;;
30420;SDS011;17218;54.070;10.012;2023-06-22T05:07:39;10.80;;;9.40;;
30420;SDS011;17218;54.070;10.012;2023-06-22T05:10:08;11.95;;;9.57;;
30420;SDS011;17218;54.070;10.012;2023-06-22T05:12:36;11.18;;;9.63;;
30420;SDS011;17218;54.070;10.012;2023-06-22T05:15:04;9.27;;;7.90;;
30420;SDS011;17218;54.070;10.012;2023-06-22T05:17:31;11.02;;;9.40;;
30420;SDS011;17218;54.070;10.012;2023-06-22T05:19:58;9.18;;;8.23;;
30420;SDS011;17218;54.070;10.012;2023-06-22T05:22:25;11.07;;;8.07;;
30420;SDS011;17218;54.070;10.012;2023-06-22T05:24:52;8.95;;;7.55;;
30420;SDS011;17218;54.070;10.012;2023-06-22T05:27:18;10.55;;;8.40;;
30420;SDS011;17218;54.070;10.012;2023-06-22T05:29:46;9.02;;;8.13;;
30420;SDS011;17218;54.070;10.012;2023-06-22T05:32:13;8.55;;;7.65;;
30420;SDS011;17218;54.070;10.012;2023-06-22T05:34:40;9.05;;;7.70;;
30420;SDS011;17218;54.070;10.012;2023-06-22T05:37:07;9.25;;;7.32;;
30420;SDS011;17218;54.070;10.012;2023-06-22T05:39:34;7.85;;;7.05;;
30420;SDS011;17218;54.070;10.012;2023-06-22T05:42:03;7.05;;;6.35;;
30420;SDS011;17218;54.070;10.012;2023-06-22T05:44:31;8.52;;;6.30;;
30420;SDS011;17218;54.070;10.012;2023-06-22T05:46:59;9.32;;;7.45;;
30420;SDS011;17218;54.070;10.012;2023-06-22T05:49:26;8.55;;;7.65;;
30420;SDS011;17218;54.070;10.012;2023-06-22T05:51:54;12.13;;;8.20;;
30420;SDS011;17218;54.070;10.012;2023-06-22T05:54:21;9.57;;;8.13;;
30420;SDS011;17218;54.070;10.012;2023-06-22T05:56:48;11.65;;;7.95;;
30420;SDS011;17218;54.070;10.012;2023-06-22T05:59:15;11.48;;;6.85;;
30420;SDS011;17218;54.070;10.012;2023-06-22T06:01:41;7.00;;;6.35;;
30420;SDS011;17218;54.070;10.012;2023-06-22T06:04:09;7.50;;;5.70;;
30420;SDS011;17218;54.070;10.012;2023-06-22T06:06:35;7.60;;;5.63;;
30420;SDS011;17218;54.070;10.012;2023-06-22T06:09:03;8.23;;;6.38;;
30420;SDS011;17218;54.070;10.012;2023-06-22T06:11:30;6.35;;;5.72;;
30420;SDS011;17218;54.070;10.012;2023-06-22T06:13:56;7.00;;;5.05;;
30420;SDS011;17218;54.070;10.012;2023-06-22T06:16:23;6.97;;;5.97;;
30420;SDS011;17218;54.070;10.012;2023-06-22T06:18:50;6.43;;;5.05;;
30420;SDS011;17218;54.070;10.012;2023-06-22T06:21:19;5.13;;;4.72;;
30420;SDS011;17218;54.070;10.012;2023-06-22T06:23:46;5.70;;;4.63;;
30420;SDS011;17218;54.070;10.012;2023-06-22T06:26:13;5.78;;;5.03;;
30420;SDS011;17218;54.070;10.012;2023-06-22T06:28:41;5.88;;;4.38;;
30420;SDS011;17218;54.070;10.012;2023-06-22T06:31:08;4.10;;;3.70;;
30420;SDS011;17218;54.070;10.012;2023-06-22T06:33:35;4.97;;;3.60;;
30420;SDS011;17218;54.070;10.012;2023-06-22T06:36:01;5.93;;;3.40;;
30420;SDS011;17218;54.070;10.012;2023-06-22T06:38:30;3.72;;;3.38;;
30420;SDS011;17218;54.070;10.012;2023-06-22T06:40:57;6.03;;;3.42;;
30420;SDS011;17218;54.070;10.012;2023-06-22T06:43:24;3.67;;;2.92;;
30420;SDS011;17218;54.070;10.012;2023-06-22T06:45:50;4.28;;;3.03;;
30420;SDS011;17218;54.070;10.012;2023-06-22T06:48:17;3.35;;;2.75;;
30420;SDS011;17218;54.070;10.012;2023-06-22T06:50:43;3.08;;;2.60;;
30420;SDS011;17218;54.070;10.012;2023-06-22T06:53:10;4.18;;;3.00;;
30420;SDS011;17218;54.070;10.012;2023-06-22T06:55:38;3.85;;;3.00;;
30420;SDS011;17218;54.070;10.012;2023-06-22T06:58:04;4.07;;;2.70;;
30420;SDS011;17218;54.070;10.012;2023-06-22T07:00:33;4.07;;;2.85;;
30420;SDS011;17218;54.070;10.012;2023-06-22T07:03:00;5.32;;;2.75;;
30420;SDS011;17218;54.070;10.012;2023-06-22T07:05:27;3.45;;;3.15;;
30420;SDS011;17218;54.070;10.012;2023-06-22T07:07:53;2.75;;;2.53;;
30420;SDS011;17218;54.070;10.012;2023-06-22T07:10:20;5.57;;;3.20;;
30420;SDS011;17218;54.070;10.012;2023-06-22T07:12:48;4.25;;;2.63;;
30420;SDS011;17218;54.070;10.012;2023-06-22T07:15:14;3.38;;;2.67;;
30420;SDS011;17218;54.070;10.012;2023-06-22T07:17:41;3.40;;;2.58;;
30420;SDS011;17218;54.070;10.012;2023-06-22T07:20:08;3.17;;;2.38;;
30420;SDS011;17218;54.070;10.012;2023-06-22T07:22:37;2.45;;;2.25;;
30420;SDS011;17218;54.070;10.012;2023-06-22T07:25:04;2.70;;;2.50;;
30420;SDS011;17218;54.070;10.012;2023-06-22T07:27:34;2.50;;;2.30;;
30420;SDS011;17218;54.070;10.012;2023-06-22T07:30:04;2.72;;;2.50;;
30420;SDS011;17218;54.070;10.012;2023-06-22T07:32:32;2.33;;;2.03;;
30420;SDS011;17218;54.070;10.012;2023-06-22T07:34:58;2.30;;;1.85;;
30420;SDS011;17218;54.070;10.012;2023-06-22T07:37:25;2.65;;;2.38;;
30420;SDS011;17218;54.070;10.012;2023-06-22T07:39:52;4.95;;;2.58;;
30420;SDS011;17218;54.070;10.012;2023-06-22T07:42:23;3.90;;;2.60;;
30420;SDS011;17218;54.070;10.012;2023-06-22T07:44:50;2.58;;;2.25;;
30420;SDS011;17218;54.070;10.012;2023-06-22T07:47:18;2.63;;;2.00;;
30420;SDS011;17218;54.070;10.012;2023-06-22T07:49:45;4.22;;;2.55;;
30420;SDS011;17218;54.070;10.012;2023-06-22T07:52:11;3.25;;;2.20;;
30420;SDS011;17218;54.070;10.012;2023-06-22T07:54:38;2.50;;;1.92;;
30420;SDS011;17218;54.070;10.012;2023-06-22T07:57:04;2.30;;;2.10;;
30420;SDS011;17218;54.070;10.012;2023-06-22T07:59:31;2.97;;;2.22;;
30420;SDS011;17218;54.070;10.012;2023-06-22T08:01:58;2.70;;;1.92;;
30420;SDS011;17218;54.070;10.012;2023-06-22T08:04:26;2.67;;;2.13;;
30420;SDS011;17218;54.070;10.012;2023-06-22T08:06:53;3.22;;;2.10;;
30420;SDS011;17218;54.070;10.012;2023-06-22T08:09:20;3.15;;;2.03;;
30420;SDS011;17218;54.070;10.012;2023-06-22T08:11:47;2.75;;;1.90;;
30420;SDS011;17218;54.070;10.012;2023-06-22T08:14:13;2.80;;;2.03;;
30420;SDS011;17218;54.070;10.012;2023-06-22T08:16:40;2.88;;;2.20;;
30420;SDS011;17218;54.070;10.012;2023-06-22T08:19:07;3.60;;;2.20;;
30420;SDS011;17218;54.070;10.012;2023-06-22T08:21:35;2.42;;;2.22;;
30420;SDS011;17218;54.070;10.012;2023-06-22T08:24:03;3.28;;;2.15;;
30420;SDS011;17218;54.070;10.012;2023-06-22T08:26:29;3.47;;;2.20;;
30420;SDS011;17218;54.070;10.012;2023-06-22T08:28:58;2.88;;;1.98;;
30420;SDS011;17218;54.070;10.012;2023-06-22T08:31:24;2.80;;;2.10;;
30420;SDS011;17218;54.070;10.012;2023-06-22T08:33:51;2.63;;;2.05;;
30420;SDS011;17218;54.070;10.012;2023-06-22T08:36:17;3.55;;;2.45;;
30420;SDS011;17218;54.070;10.012;2023-06-22T08:38:45;3.35;;;2.20;;
30420;SDS011;17218;54.070;10.012;2023-06-22T08:41:15;2.33;;;2.05;;
30420;SDS011;17218;54.070;10.012;2023-06-22T08:43:42;5.93;;;2.47;;
30420;SDS011;17218;54.070;10.012;2023-06-22T08:46:09;2.70;;;2.25;;
30420;SDS011;17218;54.070;10.012;2023-06-22T08:48:35;3.08;;;1.92;;
30420;SDS011;17218;54.070;10.012;2023-06-22T08:51:02;3.30;;;1.95;;
30420;SDS011;17218;54.070;10.012;2023-06-22T08:53:29;2.42;;;2.00;;
30420;SDS011;17218;54.070;10.012;2023-06-22T08:55:57;2.17;;;1.98;;
30420;SDS011;17218;54.070;10.012;2023-06-22T08:58:23;2.03;;;1.80;;
30420;SDS011;17218;54.070;10.012;2023-06-22T09:00:50;2.08;;;1.88;;
30420;SDS011;17218;54.070;10.012;2023-06-22T09:03:16;4.63;;;1.90;;
30420;SDS011;17218;54.070;10.012;2023-06-22T09:05:43;2.38;;;2.05;;
30420;SDS011;17218;54.070;10.012;2023-06-22T09:08:10;2.75;;;2.05;;
30420;SDS011;17218;54.070;10.012;2023-06-22T09:10:37;2.95;;;2.17;;
30420;SDS011;17218;54.070;10.012;2023-06-22T09:13:05;3.95;;;2.00;;
30420;SDS011;17218;54.070;10.012;2023-06-22T09:15:31;2.63;;;2.15;;
30420;SDS011;17218;54.070;10.012;2023-06-22T09:17:59;3.08;;;2.03;;
30420;SDS011;17218;54.070;10.012;2023-06-22T09:20:25;2.50;;;1.88;;
30420;SDS011;17218;54.070;10.012;2023-06-22T09:22:52;3.42;;;2.00;;
30420;SDS011;17218;54.070;10.012;2023-06-22T09:25:19;3.88;;;2.40;;
30420;SDS011;17218;54.070;10.012;2023-06-22T09:27:46;2.45;;;1.98;;
30420;SDS011;17218;54.070;10.012;2023-06-22T09:30:14;2.72;;;2.10;;
30420;SDS011;17218;54.070;10.012;2023-06-22T09:32:40;3.17;;;1.98;;
30420;SDS011;17218;54.070;10.012;2023-06-22T09:35:07;2.85;;;2.38;;
30420;SDS011;17218;54.070;10.012;2023-06-22T09:37:34;3.72;;;2.28;;
30420;SDS011;17218;54.070;10.012;2023-06-22T09:40:01;2.63;;;2.00;;
30420;SDS011;17218;54.070;10.012;2023-06-22T09:42:29;2.42;;;1.90;;
30420;SDS011;17218;54.070;10.012;2023-06-22T09:44:58;3.60;;;2.80;;
30420;SDS011;17218;54.070;10.012;2023-06-22T09:47:26;2.90;;;2.35;;
30420;SDS011;17218;54.070;10.012;2023-06-22T09:49:52;2.38;;;2.17;;
30420;SDS011;17218;54.070;10.012;2023-06-22T09:52:20;3.47;;;2.40;;
30420;SDS011;17218;54.070;10.012;2023-06-22T09:54:47;2.28;;;2.08;;
30420;SDS011;17218;54.070;10.012;2023-06-22T09:57:13;3.13;;;2.42;;
30420;SDS011;17218;54.070;10.012;2023-06-22T09:59:40;2.53;;;2.25;;
30420;SDS011;17218;54.070;10.012;2023-06-22T10:02:07;3.65;;;2.58;;
30420;SDS011;17218;54.070;10.012;2023-06-22T10:04:35;3.30;;;2.38;;
30420;SDS011;17218;54.070;10.012;2023-06-22T10:07:02;2.70;;;2.47;;
30420;SDS011;17218;54.070;10.012;2023-06-22T10:09:29;5.35;;;2.35;;
30420;SDS011;17218;54.070;10.012;2023-06-22T10:11:55;2.80;;;2.55;;
30420;SDS011;17218;54.070;10.012;2023-06-22T10:14:22;2.13;;;1.92;;
30420;SDS011;17218;54.070;10.012;2023-06-22T10:16:49;3.33;;;2.40;;
30420;SDS011;17218;54.070;10.012;2023-06-22T10:19:16;3.05;;;2.20;;
30420;SDS011;17218;54.070;10.012;2023-06-22T10:21:43;3.47;;;2.60;;
30420;SDS011;17218;54.070;10.012;2023-06-22T10:24:10;2.83;;;2.05;;
30420;SDS011;17218;54.070;10.012;2023-06-22T10:26:36;2.28;;;2.05;;
30420;SDS011;17218;54.070;10.012;2023-06-22T10:29:03;2.63;;;2.00;;
30420;SDS011;17218;54.070;10.012;2023-06-22T10:31:30;2.25;;;2.00;;
30420;SDS011;17218;54.070;10.012;2023-06-22T10:33:56;2.28;;;2.03;;
30420;SDS011;17218;54.070;10.012;2023-06-22T10:36:23;2.58;;;1.80;;
30420;SDS011;17218;54.070;10.012;2023-06-22T10:38:50;2.58;;;2.05;;
30420;SDS011;17218;54.070;10.012;2023-06-22T10:41:18;3.13;;;2.17;;
30420;SDS011;17218;54.070;10.012;2023-06-22T10:43:44;3.00;;;2.15;;
30420;SDS011;17218;54.070;10.012;2023-06-22T10:46:12;3.53;;;2.38;;
30420;SDS011;17218;54.070;10.012;2023-06-22T10:48:38;3.67;;;2.50;;
30420;SDS011;17218;54.070;10.012;2023-06-22T10:51:05;6.93;;;3.05;;
30420;SDS011;17218;54.070;10.012;2023-06-22T10:53:31;4.15;;;2.95;;
30420;SDS011;17218;54.070;10.012;2023-06-22T10:55:59;3.13;;;2.72;;
30420;SDS011;17218;54.070;10.012;2023-06-22T10:58:25;4.82;;;2.83;;
30420;SDS011;17218;54.070;10.012;2023-06-22T11:00:52;3.20;;;2.72;;
30420;SDS011;17218;54.070;10.012;2023-06-22T11:03:18;3.60;;;2.55;;
30420;SDS011;17218;54.070;10.012;2023-06-22T11:05:45;5.00;;;2.88;;
30420;SDS011;17218;54.070;10.012;2023-06-22T11:08:12;6.72;;;3.35;;
30420;SDS011;17218;54.070;10.012;2023-06-22T11:10:39;4.00;;;2.85;;
30420;SDS011;17218;54.070;10.012;2023-06-22T11:15:34;3.90;;;3.00;;
30420;SDS011;17218;54.070;10.012;2023-06-22T11:45:35;3.10;;;2.80;;
30420;SDS011;17218;54.070;10.012;2023-06-22T12:01:43;4.95;;;3.25;;
30420;SDS011;17218;54.070;10.012;2023-06-22T12:04:10;6.20;;;3.10;;
30420;SDS011;17218;54.070;10.012;2023-06-22T12:06:37;3.83;;;3.03;;
30420;SDS011;17218;54.070;10.012;2023-06-22T12:09:06;3.42;;;3.10;;
30420;SDS011;17218;54.070;10.012;2023-06-22T12:11:33;4.97;;;2.78;;
30420;SDS011;17218;54.070;10.012;2023-06-22T12:13:59;4.22;;;2.67;;
30420;SDS011;17218;54.070;10.012;2023-06-22T12:16:27;4.10;;;3.45;;
30420;SDS011;17218;54.070;10.012;2023-06-22T12:18:55;3.38;;;3.00;;
30420;SDS011;17218;54.070;10.012;2023-06-22T12:21:21;3.50;;;3.20;;
30420;SDS011;17218;54.070;10.012;2023-06-22T12:23:48;4.95;;;3.50;;
30420;SDS011;17218;54.070;10.012;2023-06-22T12:26:14;4.25;;;3.40;;
30420;SDS011;17218;54.070;10.012;2023-06-22T12:28:41;3.47;;;2.92;;
30420;SDS011;17218;54.070;10.012;2023-06-22T12:31:07;3.50;;;2.72;;
30420;SDS011;17218;54.070;10.012;2023-06-22T12:33:34;3.40;;;3.10;;
30420;SDS011;17218;54.070;10.012;2023-06-22T12:36:02;2.80;;;2.55;;
30420;SDS011;17218;54.070;10.012;2023-06-22T12:38:30;2.97;;;2.75;;
30420;SDS011;17218;54.070;10.012;2023-06-22T12:40:56;3.70;;;3.33;;
30420;SDS011;17218;54.070;10.012;2023-06-22T12:43:22;3.08;;;2.78;;
30420;SDS011;17218;54.070;10.012;2023-06-22T12:45:49;3.30;;;3.00;;
30420;SDS011;17218;54.070;10.012;2023-06-22T12:48:15;3.08;;;2.78;;
30420;SDS011;17218;54.070;10.012;2023-06-22T12:50:42;3.20;;;2.90;;
30420;SDS011;17218;54.070;10.012;2023-06-22T12:53:10;3.22;;;2.80;;
30420;SDS011;17218;54.070;10.012;2023-06-22T12:55:36;3.75;;;2.90;;
30420;SDS011;17218;54.070;10.012;2023-06-22T12:58:03;4.20;;;3.13;;
30420;SDS011;17218;54.070;10.012;2023-06-22T13:00:29;2.72;;;2.53;;
30420;SDS011;17218;54.070;10.012;2023-06-22T13:02:56;3.40;;;3.10;;
30420;SDS011;17218;54.070;10.012;2023-06-22T13:05:22;3.15;;;2.65;;
30420;SDS011;17218;54.070;10.012;2023-06-22T13:07:49;3.72;;;3.15;;
30420;SDS011;17218;54.070;10.012;2023-06-22T13:10:17;3.20;;;2.72;;
30420;SDS011;17218;54.070;10.012;2023-06-22T13:12:43;2.67;;;2.47;;
30420;SDS011;17218;54.070;10.012;2023-06-22T13:15:10;3.42;;;3.13;;
30420;SDS011;17218;54.070;10.012;2023-06-22T13:17:36;3.20;;;2.70;;
30420;SDS011;17218;54.070;10.012;2023-06-22T13:20:03;3.55;;;3.25;;
30420;SDS011;17218;54.070;10.012;2023-06-22T13:22:31;3.40;;;2.88;;
30420;SDS011;17218;54.070;10.012;2023-06-22T13:25:04;3.80;;;2.83;;
30420;SDS011;17218;54.070;10.012;2023-06-22T13:27:33;2.90;;;2.60;;
30420;SDS011;17218;54.070;10.012;2023-06-22T13:30:00;2.90;;;2.60;;
30420;SDS011;17218;54.070;10.012;2023-06-22T13:32:27;2.70;;;2.50;;
30420;SDS011;17218;54.070;10.012;2023-06-22T13:34:54;3.15;;;2.85;;
30420;SDS011;17218;54.070;10.012;2023-06-22T13:37:20;2.78;;;2.58;;
30420;SDS011;17218;54.070;10.012;2023-06-22T13:39:47;2.90;;;2.58;;
30420;SDS011;17218;54.070;10.012;2023-06-22T13:42:13;3.00;;;2.70;;
30420;SDS011;17218;54.070;10.012;2023-06-22T13:44:41;3.53;;;2.50;;
30420;SDS011;17218;54.070;10.012;2023-06-22T13:47:08;3.25;;;2.97;;
30420;SDS011;17218;54.070;10.012;2023-06-22T13:49:34;3.83;;;2.90;;
30420;SDS011;17218;54.070;10.012;2023-06-22T13:52:01;4.35;;;2.53;;
30420;SDS011;17218;54.070;10.012;2023-06-22T13:54:28;4.10;;;2.75;;
30420;SDS011;17218;54.070;10.012;2023-06-22T13:56:55;2.95;;;2.75;;
30420;SDS011;17218;54.070;10.012;2023-06-22T13:59:21;4.28;;;2.65;;
30420;SDS011;17218;54.070;10.012;2023-06-22T14:01:49;2.92;;;2.70;;
30420;SDS011;17218;54.070;10.012;2023-06-22T14:04:16;2.85;;;2.42;;
30420;SDS011;17218;54.070;10.012;2023-06-22T14:06:43;3.67;;;2.90;;
30420;SDS011;17218;54.070;10.012;2023-06-22T14:09:09;3.15;;;2.85;;
30420;SDS011;17218;54.070;10.012;2023-06-22T14:11:36;4.15;;;3.13;;
30420;SDS011;17218;54.070;10.012;2023-06-22T14:14:02;4.70;;;3.10;;
30420;SDS011;17218;54.070;10.012;2023-06-22T14:16:29;2.55;;;2.20;;
30420;SDS011;17218;54.070;10.012;2023-06-22T14:18:57;3.72;;;2.80;;
30420;SDS011;17218;54.070;10.012;2023-06-22T14:21:23;3.00;;;2.42;;
30420;SDS011;17218;54.070;10.012;2023-06-22T14:23:50;3.92;;;2.47;;
30420;SDS011;17218;54.070;10.012;2023-06-22T14:26:16;2.83;;;2.60;;
30420;SDS011;17218;54.070;10.012;2023-06-22T14:28:43;2.75;;;2.55;;
30420;SDS011;17218;54.070;10.012;2023-06-22T14:31:12;4.50;;;2.97;;
30420;SDS011;17218;54.070;10.012;2023-06-22T14:33:39;5.00;;;2.80;;
30420;SDS011;17218;54.070;10.012;2023-06-22T14:36:07;2.70;;;2.50;;
30420;SDS011;17218;54.070;10.012;2023-06-22T14:38:33;2.95;;;2.42;;
30420;SDS011;17218;54.070;10.012;2023-06-22T14:41:00;2.97;;;2.00;;
30420;SDS011;17218;54.070;10.012;2023-06-22T14:43:26;3.17;;;2.00;;
30420;SDS011;17218;54.070;10.012;2023-06-22T14:45:53;2.00;;;1.80;;
30420;SDS011;17218;54.070;10.012;2023-06-22T14:48:19;2.33;;;2.13;;
30420;SDS011;17218;54.070;10.012;2023-06-22T14:50:46;2.30;;;2.05;;
30420;SDS011;17218;54.070;10.012;2023-06-22T14:53:16;3.75;;;2.38;;
30420;SDS011;17218;54.070;10.012;2023-06-22T14:55:42;3.92;;;2.08;;
30420;SDS011;17218;54.070;10.012;2023-06-22T14:58:10;2.25;;;2.00;;
30420;SDS011;17218;54.070;10.012;2023-06-22T15:00:37;2.03;;;1.90;;
30420;SDS011;17218;54.070;10.012;2023-06-22T15:03:03;2.40;;;2.20;;
30420;SDS011;17218;54.070;10.012;2023-06-22T15:05:32;2.42;;;1.95;;
30420;SDS011;17218;54.070;10.012;2023-06-22T15:07:59;3.97;;;2.40;;
30420;SDS011;17218;54.070;10.012;2023-06-22T15:10:27;3.80;;;1.85;;
30420;SDS011;17218;54.070;10.012;2023-06-22T15:12:53;4.13;;;2.13;;
30420;SDS011;17218;54.070;10.012;2023-06-22T15:15:20;3.78;;;2.22;;
30420;SDS011;17218;54.070;10.012;2023-06-22T15:17:46;2.20;;;1.90;;